sensor_id;sensor_type;location;lat;lon;timestamp;temperature;humidity
38860;DHT22;24609;48.316;16.174;2024-01-06T00:00:30;2.20;1.00
38860;DHT22;24609;48.316;16.174;2024-01-06T00:02:56;2.20;1.00
38860;DHT22;24609;48.316;16.174;2024-01-06T00:05:21;2.20;99.90
38860;DHT22;24609;48.316;16.174;2024-01-06T00:07:47;2.30;99.90
38860;DHT22;24609;48.316;16.174;2024-01-06T00:10:13;2.30;99.90
38860;DHT22;24609;48.316;16.174;2024-01-06T00:12:38;2.40;99.90
38860;DHT22;24609;48.316;16.174;2024-01-06T00:15:04;2.50;99.90
38860;DHT22;24609;48.316;16.174;2024-01-06T00:17:30;2.50;99.90
38860;DHT22;24609;48.316;16.174;2024-01-06T00:19:57;2.50;99.90
38860;DHT22;24609;48.316;16.174;2024-01-06T00:22:23;2.50;99.90
38860;DHT22;24609;48.316;16.174;2024-01-06T00:24:49;2.50;99.90
38860;DHT22;24609;48.316;16.174;2024-01-06T00:27:14;2.40;99.90
38860;DHT22;24609;48.316;16.174;2024-01-06T00:29:41;2.50;99.90
38860;DHT22;24609;48.316;16.174;2024-01-06T00:32:07;2.50;99.90
38860;DHT22;24609;48.316;16.174;2024-01-06T00:34:32;2.60;99.90
38860;DHT22;24609;48.316;16.174;2024-01-06T00:36:58;2.60;99.90
38860;DHT22;24609;48.316;16.174;2024-01-06T00:39:24;2.70;99.90
38860;DHT22;24609;48.316;16.174;2024-01-06T00:41:49;2.70;99.90
38860;DHT22;24609;48.316;16.174;2024-01-06T00:44:15;2.80;99.90
38860;DHT22;24609;48.316;16.174;2024-01-06T00:46:41;2.90;99.90
38860;DHT22;24609;48.316;16.174;2024-01-06T00:49:06;2.90;99.90
38860;DHT22;24609;48.316;16.174;2024-01-06T00:51:32;3.00;99.90
38860;DHT22;24609;48.316;16.174;2024-01-06T00:53:57;3.00;99.90
38860;DHT22;24609;48.316;16.174;2024-01-06T00:56:23;2.90;99.90
38860;DHT22;24609;48.316;16.174;2024-01-06T00:58:49;2.90;99.90
38860;DHT22;24609;48.316;16.174;2024-01-06T01:01:14;2.90;99.90
38860;DHT22;24609;48.316;16.174;2024-01-06T01:03:40;2.70;99.90
38860;DHT22;24609;48.316;16.174;2024-01-06T01:06:06;2.80;99.90
38860;DHT22;24609;48.316;16.174;2024-01-06T01:08:31;2.80;1.00
38860;DHT22;24609;48.316;16.174;2024-01-06T01:10:57;2.80;99.90
38860;DHT22;24609;48.316;16.174;2024-01-06T01:13:23;2.70;1.00
38860;DHT22;24609;48.316;16.174;2024-01-06T01:15:49;2.70;1.00
38860;DHT22;24609;48.316;16.174;2024-01-06T01:18:15;2.70;1.00
38860;DHT22;24609;48.316;16.174;2024-01-06T01:20:40;2.70;1.00
38860;DHT22;24609;48.316;16.174;2024-01-06T01:23:09;2.80;1.00
38860;DHT22;24609;48.316;16.174;2024-01-06T01:25:34;2.80;1.00
38860;DHT22;24609;48.316;16.174;2024-01-06T01:28:00;2.90;1.00
38860;DHT22;24609;48.316;16.174;2024-01-06T01:30:26;2.90;1.00
38860;DHT22;24609;48.316;16.174;2024-01-06T01:32:53;2.90;1.00
38860;DHT22;24609;48.316;16.174;2024-01-06T01:35:18;2.90;1.00
38860;DHT22;24609;48.316;16.174;2024-01-06T01:37:44;2.80;1.00
38860;DHT22;24609;48.316;16.174;2024-01-06T01:40:10;2.90;1.00
38860;DHT22;24609;48.316;16.174;2024-01-06T01:42:36;2.90;1.00
38860;DHT22;24609;48.316;16.174;2024-01-06T01:45:04;2.90;1.00
38860;DHT22;24609;48.316;16.174;2024-01-06T01:47:29;3.00;1.00
38860;DHT22;24609;48.316;16.174;2024-01-06T01:49:55;3.00;1.00
38860;DHT22;24609;48.316;16.174;2024-01-06T01:52:22;3.00;1.00
38860;DHT22;24609;48.316;16.174;2024-01-06T01:54:48;3.00;1.00
38860;DHT22;24609;48.316;16.174;2024-01-06T01:57:15;2.90;1.00
38860;DHT22;24609;48.316;16.174;2024-01-06T01:59:42;2.90;1.00
38860;DHT22;24609;48.316;16.174;2024-01-06T02:02:08;2.80;1.00
38860;DHT22;24609;48.316;16.174;2024-01-06T02:04:34;2.80;1.00
38860;DHT22;24609;48.316;16.174;2024-01-06T02:07:00;2.80;1.00
38860;DHT22;24609;48.316;16.174;2024-01-06T02:09:26;2.80;1.00
38860;DHT22;24609;48.316;16.174;2024-01-06T02:11:57;2.90;1.00
38860;DHT22;24609;48.316;16.174;2024-01-06T02:14:23;3.00;1.00
38860;DHT22;24609;48.316;16.174;2024-01-06T02:16:49;3.10;1.00
38860;DHT22;24609;48.316;16.174;2024-01-06T02:19:16;3.10;1.00
38860;DHT22;24609;48.316;16.174;2024-01-06T02:21:44;3.10;1.00
38860;DHT22;24609;48.316;16.174;2024-01-06T02:24:10;3.10;1.00
38860;DHT22;24609;48.316;16.174;2024-01-06T02:26:36;3.20;1.00
38860;DHT22;24609;48.316;16.174;2024-01-06T02:29:01;3.20;1.00
38860;DHT22;24609;48.316;16.174;2024-01-06T02:31:27;3.10;1.00
38860;DHT22;24609;48.316;16.174;2024-01-06T02:33:53;3.00;1.00
38860;DHT22;24609;48.316;16.174;2024-01-06T02:36:19;3.10;1.00
38860;DHT22;24609;48.316;16.174;2024-01-06T02:38:45;3.00;1.00
38860;DHT22;24609;48.316;16.174;2024-01-06T02:41:11;3.00;1.00
38860;DHT22;24609;48.316;16.174;2024-01-06T02:43:36;3.10;1.00
38860;DHT22;24609;48.316;16.174;2024-01-06T02:46:02;3.10;2.50
38860;DHT22;24609;48.316;16.174;2024-01-06T02:48:28;3.20;1.00
38860;DHT22;24609;48.316;16.174;2024-01-06T02:50:56;3.20;3.00
38860;DHT22;24609;48.316;16.174;2024-01-06T02:53:22;3.10;1.00
38860;DHT22;24609;48.316;16.174;2024-01-06T02:55:47;3.00;1.00
38860;DHT22;24609;48.316;16.174;2024-01-06T02:58:13;3.00;1.00
38860;DHT22;24609;48.316;16.174;2024-01-06T03:00:39;2.90;1.00
38860;DHT22;24609;48.316;16.174;2024-01-06T03:03:04;2.90;1.00
38860;DHT22;24609;48.316;16.174;2024-01-06T03:05:30;3.00;1.00
38860;DHT22;24609;48.316;16.174;2024-01-06T03:07:56;3.00;1.80
38860;DHT22;24609;48.316;16.174;2024-01-06T03:10:22;3.00;1.00
38860;DHT22;24609;48.316;16.174;2024-01-06T03:12:48;3.00;1.00
38860;DHT22;24609;48.316;16.174;2024-01-06T03:15:14;3.00;1.00
38860;DHT22;24609;48.316;16.174;2024-01-06T03:17:40;3.00;4.60
38860;DHT22;24609;48.316;16.174;2024-01-06T03:20:06;3.00;7.70
38860;DHT22;24609;48.316;16.174;2024-01-06T03:22:32;3.10;21.60
38860;DHT22;24609;48.316;16.174;2024-01-06T03:24:58;3.10;21.80
38860;DHT22;24609;48.316;16.174;2024-01-06T03:27:24;3.10;14.80
38860;DHT22;24609;48.316;16.174;2024-01-06T03:29:49;3.10;17.30
38860;DHT22;24609;48.316;16.174;2024-01-06T03:32:15;3.10;18.00
38860;DHT22;24609;48.316;16.174;2024-01-06T03:34:41;3.10;17.50
38860;DHT22;24609;48.316;16.174;2024-01-06T03:37:07;3.20;25.70
38860;DHT22;24609;48.316;16.174;2024-01-06T03:39:33;3.20;32.80
38860;DHT22;24609;48.316;16.174;2024-01-06T03:41:59;3.20;33.80
38860;DHT22;24609;48.316;16.174;2024-01-06T03:44:25;3.20;24.40
38860;DHT22;24609;48.316;16.174;2024-01-06T03:46:59;3.10;8.40
38860;DHT22;24609;48.316;16.174;2024-01-06T03:49:25;3.10;15.40
38860;DHT22;24609;48.316;16.174;2024-01-06T03:51:51;3.00;2.70
38860;DHT22;24609;48.316;16.174;2024-01-06T03:54:16;2.90;6.70
38860;DHT22;24609;48.316;16.174;2024-01-06T03:56:42;3.00;29.40
38860;DHT22;24609;48.316;16.174;2024-01-06T03:59:08;3.10;37.80
38860;DHT22;24609;48.316;16.174;2024-01-06T04:01:34;3.10;39.70
38860;DHT22;24609;48.316;16.174;2024-01-06T04:04:04;3.20;49.10
38860;DHT22;24609;48.316;16.174;2024-01-06T04:06:30;3.20;53.40
38860;DHT22;24609;48.316;16.174;2024-01-06T04:08:57;3.30;53.80
38860;DHT22;24609;48.316;16.174;2024-01-06T04:11:23;3.30;58.90
38860;DHT22;24609;48.316;16.174;2024-01-06T04:13:49;3.30;48.20
38860;DHT22;24609;48.316;16.174;2024-01-06T04:16:15;3.30;37.70
38860;DHT22;24609;48.316;16.174;2024-01-06T04:18:40;3.30;38.10
38860;DHT22;24609;48.316;16.174;2024-01-06T04:21:06;3.20;21.90
38860;DHT22;24609;48.316;16.174;2024-01-06T04:23:32;3.20;32.80
38860;DHT22;24609;48.316;16.174;2024-01-06T04:25:57;3.30;40.10
38860;DHT22;24609;48.316;16.174;2024-01-06T04:28:23;3.20;27.60
38860;DHT22;24609;48.316;16.174;2024-01-06T04:30:49;3.10;27.30
38860;DHT22;24609;48.316;16.174;2024-01-06T04:33:15;3.20;47.90
38860;DHT22;24609;48.316;16.174;2024-01-06T04:35:40;3.20;35.80
38860;DHT22;24609;48.316;16.174;2024-01-06T04:38:06;3.20;44.40
38860;DHT22;24609;48.316;16.174;2024-01-06T04:40:32;3.30;51.00
38860;DHT22;24609;48.316;16.174;2024-01-06T04:42:57;3.40;53.00
38860;DHT22;24609;48.316;16.174;2024-01-06T04:45:23;3.30;39.80
38860;DHT22;24609;48.316;16.174;2024-01-06T04:47:51;3.30;26.60
38860;DHT22;24609;48.316;16.174;2024-01-06T04:50:18;3.20;21.60
38860;DHT22;24609;48.316;16.174;2024-01-06T04:52:44;3.10;17.50
38860;DHT22;24609;48.316;16.174;2024-01-06T04:55:10;3.20;41.80
38860;DHT22;24609;48.316;16.174;2024-01-06T04:57:36;3.30;53.50
38860;DHT22;24609;48.316;16.174;2024-01-06T05:00:03;3.30;55.30
38860;DHT22;24609;48.316;16.174;2024-01-06T05:02:29;3.30;56.50
38860;DHT22;24609;48.316;16.174;2024-01-06T05:04:55;3.40;68.20
38860;DHT22;24609;48.316;16.174;2024-01-06T05:07:20;3.50;78.30
38860;DHT22;24609;48.316;16.174;2024-01-06T05:09:47;3.50;80.90
38860;DHT22;24609;48.316;16.174;2024-01-06T05:12:12;3.50;68.90
38860;DHT22;24609;48.316;16.174;2024-01-06T05:14:38;3.50;56.70
38860;DHT22;24609;48.316;16.174;2024-01-06T05:17:04;3.40;51.60
38860;DHT22;24609;48.316;16.174;2024-01-06T05:19:29;3.40;53.50
38860;DHT22;24609;48.316;16.174;2024-01-06T05:21:55;3.40;56.30
38860;DHT22;24609;48.316;16.174;2024-01-06T05:24:21;3.40;58.70
38860;DHT22;24609;48.316;16.174;2024-01-06T05:26:46;3.50;76.50
38860;DHT22;24609;48.316;16.174;2024-01-06T05:29:12;3.60;84.00
38860;DHT22;24609;48.316;16.174;2024-01-06T05:31:38;3.60;68.60
38860;DHT22;24609;48.316;16.174;2024-01-06T05:34:03;3.70;80.40
38860;DHT22;24609;48.316;16.174;2024-01-06T05:36:30;3.60;86.90
38860;DHT22;24609;48.316;16.174;2024-01-06T05:38:55;3.70;94.00
38860;DHT22;24609;48.316;16.174;2024-01-06T05:41:21;3.60;47.80
38860;DHT22;24609;48.316;16.174;2024-01-06T05:43:47;3.50;47.80
38860;DHT22;24609;48.316;16.174;2024-01-06T05:46:23;3.60;61.40
38860;DHT22;24609;48.316;16.174;2024-01-06T05:48:49;3.70;75.10
38860;DHT22;24609;48.316;16.174;2024-01-06T05:51:15;3.60;62.50
38860;DHT22;24609;48.316;16.174;2024-01-06T05:53:41;3.50;52.20
38860;DHT22;24609;48.316;16.174;2024-01-06T05:56:07;3.60;56.90
38860;DHT22;24609;48.316;16.174;2024-01-06T05:58:35;3.50;57.40
38860;DHT22;24609;48.316;16.174;2024-01-06T06:01:00;3.60;73.80
38860;DHT22;24609;48.316;16.174;2024-01-06T06:03:26;3.60;76.60
38860;DHT22;24609;48.316;16.174;2024-01-06T06:05:52;3.60;83.10
38860;DHT22;24609;48.316;16.174;2024-01-06T06:08:18;3.60;73.80
38860;DHT22;24609;48.316;16.174;2024-01-06T06:10:44;3.70;80.70
38860;DHT22;24609;48.316;16.174;2024-01-06T06:13:30;3.60;52.80
38860;DHT22;24609;48.316;16.174;2024-01-06T06:15:56;3.50;51.80
38860;DHT22;24609;48.316;16.174;2024-01-06T06:18:23;3.50;57.00
38860;DHT22;24609;48.316;16.174;2024-01-06T06:20:48;3.40;65.90
38860;DHT22;24609;48.316;16.174;2024-01-06T06:23:14;3.40;75.00
38860;DHT22;24609;48.316;16.174;2024-01-06T06:25:40;3.50;87.10
38860;DHT22;24609;48.316;16.174;2024-01-06T06:28:06;3.50;92.90
38860;DHT22;24609;48.316;16.174;2024-01-06T06:30:32;3.50;95.60
38860;DHT22;24609;48.316;16.174;2024-01-06T06:32:58;3.50;94.20
38860;DHT22;24609;48.316;16.174;2024-01-06T06:35:25;3.50;95.00
38860;DHT22;24609;48.316;16.174;2024-01-06T06:37:51;3.50;96.30
38860;DHT22;24609;48.316;16.174;2024-01-06T06:40:17;3.50;95.90
38860;DHT22;24609;48.316;16.174;2024-01-06T06:42:42;3.50;97.80
38860;DHT22;24609;48.316;16.174;2024-01-06T06:45:08;3.50;99.90
38860;DHT22;24609;48.316;16.174;2024-01-06T06:47:37;3.60;99.90
38860;DHT22;24609;48.316;16.174;2024-01-06T06:50:03;3.70;99.90
38860;DHT22;24609;48.316;16.174;2024-01-06T06:52:29;3.70;99.90
38860;DHT22;24609;48.316;16.174;2024-01-06T06:54:54;3.70;99.90
38860;DHT22;24609;48.316;16.174;2024-01-06T06:57:20;3.70;99.90
38860;DHT22;24609;48.316;16.174;2024-01-06T06:59:46;3.80;99.90
38860;DHT22;24609;48.316;16.174;2024-01-06T07:02:11;3.80;99.90
38860;DHT22;24609;48.316;16.174;2024-01-06T07:04:37;3.80;99.90
38860;DHT22;24609;48.316;16.174;2024-01-06T07:07:03;3.80;99.90
38860;DHT22;24609;48.316;16.174;2024-01-06T07:09:28;3.90;99.90
38860;DHT22;24609;48.316;16.174;2024-01-06T07:11:54;3.90;99.90
38860;DHT22;24609;48.316;16.174;2024-01-06T07:14:20;3.90;99.90
38860;DHT22;24609;48.316;16.174;2024-01-06T07:16:45;3.90;99.90
38860;DHT22;24609;48.316;16.174;2024-01-06T07:19:11;3.90;99.90
38860;DHT22;24609;48.316;16.174;2024-01-06T07:21:37;4.00;99.90
38860;DHT22;24609;48.316;16.174;2024-01-06T07:24:03;3.90;99.90
38860;DHT22;24609;48.316;16.174;2024-01-06T07:26:28;3.90;99.50
38860;DHT22;24609;48.316;16.174;2024-01-06T07:28:55;3.90;99.90
38860;DHT22;24609;48.316;16.174;2024-01-06T07:31:20;3.90;99.90
38860;DHT22;24609;48.316;16.174;2024-01-06T07:33:46;3.90;98.20
38860;DHT22;24609;48.316;16.174;2024-01-06T07:36:12;3.90;96.20
38860;DHT22;24609;48.316;16.174;2024-01-06T07:38:38;4.00;99.80
38860;DHT22;24609;48.316;16.174;2024-01-06T07:41:03;4.00;99.90
38860;DHT22;24609;48.316;16.174;2024-01-06T07:43:32;4.00;99.90
38860;DHT22;24609;48.316;16.174;2024-01-06T07:45:58;4.10;99.90
38860;DHT22;24609;48.316;16.174;2024-01-06T07:48:23;4.10;99.90
38860;DHT22;24609;48.316;16.174;2024-01-06T07:50:50;4.10;99.90
38860;DHT22;24609;48.316;16.174;2024-01-06T07:53:15;4.00;92.50
38860;DHT22;24609;48.316;16.174;2024-01-06T07:55:41;4.00;86.30
38860;DHT22;24609;48.316;16.174;2024-01-06T07:58:07;3.90;82.40
38860;DHT22;24609;48.316;16.174;2024-01-06T08:00:32;3.90;85.40
38860;DHT22;24609;48.316;16.174;2024-01-06T08:02:58;3.90;90.60
38860;DHT22;24609;48.316;16.174;2024-01-06T08:05:24;3.90;92.70
38860;DHT22;24609;48.316;16.174;2024-01-06T08:07:51;3.90;96.30
38860;DHT22;24609;48.316;16.174;2024-01-06T08:10:17;3.90;99.90
38860;DHT22;24609;48.316;16.174;2024-01-06T08:12:42;4.00;99.90
38860;DHT22;24609;48.316;16.174;2024-01-06T08:15:08;4.00;99.90
38860;DHT22;24609;48.316;16.174;2024-01-06T08:17:38;4.00;99.90
38860;DHT22;24609;48.316;16.174;2024-01-06T08:20:06;4.00;99.90
38860;DHT22;24609;48.316;16.174;2024-01-06T08:22:33;4.10;99.90
38860;DHT22;24609;48.316;16.174;2024-01-06T08:24:59;4.10;99.90
38860;DHT22;24609;48.316;16.174;2024-01-06T08:27:25;4.10;99.90
38860;DHT22;24609;48.316;16.174;2024-01-06T08:29:50;4.10;99.90
38860;DHT22;24609;48.316;16.174;2024-01-06T08:32:16;4.20;99.90
38860;DHT22;24609;48.316;16.174;2024-01-06T08:34:42;4.10;99.90
38860;DHT22;24609;48.316;16.174;2024-01-06T08:37:08;4.20;99.90
38860;DHT22;24609;48.316;16.174;2024-01-06T08:39:33;4.20;99.90
38860;DHT22;24609;48.316;16.174;2024-01-06T08:41:59;4.20;99.90
38860;DHT22;24609;48.316;16.174;2024-01-06T08:44:25;4.20;99.90
38860;DHT22;24609;48.316;16.174;2024-01-06T08:46:50;4.20;99.90
38860;DHT22;24609;48.316;16.174;2024-01-06T08:49:17;4.20;99.90
38860;DHT22;24609;48.316;16.174;2024-01-06T08:51:43;4.30;99.90
38860;DHT22;24609;48.316;16.174;2024-01-06T08:54:08;4.30;99.90
38860;DHT22;24609;48.316;16.174;2024-01-06T08:56:35;4.30;99.90
38860;DHT22;24609;48.316;16.174;2024-01-06T08:59:01;4.40;99.90
38860;DHT22;24609;48.316;16.174;2024-01-06T09:01:27;4.40;99.90
38860;DHT22;24609;48.316;16.174;2024-01-06T09:03:52;4.40;96.60
38860;DHT22;24609;48.316;16.174;2024-01-06T09:06:18;4.40;99.00
38860;DHT22;24609;48.316;16.174;2024-01-06T09:08:44;4.40;99.90
38860;DHT22;24609;48.316;16.174;2024-01-06T09:11:09;4.40;99.90
38860;DHT22;24609;48.316;16.174;2024-01-06T09:13:35;4.30;98.50
38860;DHT22;24609;48.316;16.174;2024-01-06T09:16:01;4.30;96.30
38860;DHT22;24609;48.316;16.174;2024-01-06T09:18:27;4.40;99.90
38860;DHT22;24609;48.316;16.174;2024-01-06T09:20:53;4.50;99.90
38860;DHT22;24609;48.316;16.174;2024-01-06T09:23:19;4.60;99.90
38860;DHT22;24609;48.316;16.174;2024-01-06T09:25:46;4.60;99.90
38860;DHT22;24609;48.316;16.174;2024-01-06T09:28:15;4.60;99.90
38860;DHT22;24609;48.316;16.174;2024-01-06T09:30:41;4.60;95.70
38860;DHT22;24609;48.316;16.174;2024-01-06T09:33:06;4.60;93.10
38860;DHT22;24609;48.316;16.174;2024-01-06T09:35:33;4.60;95.10
38860;DHT22;24609;48.316;16.174;2024-01-06T09:37:59;4.60;93.90
38860;DHT22;24609;48.316;16.174;2024-01-06T09:40:25;4.60;87.50
38860;DHT22;24609;48.316;16.174;2024-01-06T09:42:51;4.50;66.20
38860;DHT22;24609;48.316;16.174;2024-01-06T09:45:18;4.50;73.50
38860;DHT22;24609;48.316;16.174;2024-01-06T09:47:49;4.50;86.50
38860;DHT22;24609;48.316;16.174;2024-01-06T09:50:18;4.40;78.00
38860;DHT22;24609;48.316;16.174;2024-01-06T09:52:45;4.40;89.30
38860;DHT22;24609;48.316;16.174;2024-01-06T09:55:18;4.50;97.10
38860;DHT22;24609;48.316;16.174;2024-01-06T09:57:46;4.50;99.90
38860;DHT22;24609;48.316;16.174;2024-01-06T10:00:12;4.60;99.90
38860;DHT22;24609;48.316;16.174;2024-01-06T10:02:38;4.60;96.50
38860;DHT22;24609;48.316;16.174;2024-01-06T10:05:06;4.60;94.40
38860;DHT22;24609;48.316;16.174;2024-01-06T10:07:33;4.60;91.40
38860;DHT22;24609;48.316;16.174;2024-01-06T10:09:59;4.70;94.10
38860;DHT22;24609;48.316;16.174;2024-01-06T10:12:25;4.70;97.10
38860;DHT22;24609;48.316;16.174;2024-01-06T10:14:52;4.70;90.40
38860;DHT22;24609;48.316;16.174;2024-01-06T10:17:18;4.80;77.80
38860;DHT22;24609;48.316;16.174;2024-01-06T10:19:45;4.70;53.00
38860;DHT22;24609;48.316;16.174;2024-01-06T10:22:11;4.70;73.10
38860;DHT22;24609;48.316;16.174;2024-01-06T10:24:37;4.70;61.60
38860;DHT22;24609;48.316;16.174;2024-01-06T10:27:03;4.70;77.40
38860;DHT22;24609;48.316;16.174;2024-01-06T10:29:29;4.70;88.90
38860;DHT22;24609;48.316;16.174;2024-01-06T10:31:55;4.70;99.60
38860;DHT22;24609;48.316;16.174;2024-01-06T10:34:22;4.80;99.90
38860;DHT22;24609;48.316;16.174;2024-01-06T10:36:49;4.80;99.90
38860;DHT22;24609;48.316;16.174;2024-01-06T10:39:15;4.80;99.90
38860;DHT22;24609;48.316;16.174;2024-01-06T10:41:41;4.80;99.90
38860;DHT22;24609;48.316;16.174;2024-01-06T10:44:08;4.90;91.10
38860;DHT22;24609;48.316;16.174;2024-01-06T10:46:34;4.90;92.80
38860;DHT22;24609;48.316;16.174;2024-01-06T10:49:02;4.80;24.60
38860;DHT22;24609;48.316;16.174;2024-01-06T10:51:32;4.80;34.70
38860;DHT22;24609;48.316;16.174;2024-01-06T10:54:01;4.80;6.00
38860;DHT22;24609;48.316;16.174;2024-01-06T10:56:26;4.70;1.00
38860;DHT22;24609;48.316;16.174;2024-01-06T10:58:53;4.70;1.00
38860;DHT22;24609;48.316;16.174;2024-01-06T11:01:21;4.80;1.30
38860;DHT22;24609;48.316;16.174;2024-01-06T11:03:48;4.70;1.00
38860;DHT22;24609;48.316;16.174;2024-01-06T11:06:15;4.70;1.00
38860;DHT22;24609;48.316;16.174;2024-01-06T11:11:35;4.70;1.00
38860;DHT22;24609;48.316;16.174;2024-01-06T11:14:26;4.70;1.00
38860;DHT22;24609;48.316;16.174;2024-01-06T11:16:53;4.70;1.00
38860;DHT22;24609;48.316;16.174;2024-01-06T11:22:18;4.80;1.00
38860;DHT22;24609;48.316;16.174;2024-01-06T11:24:47;4.70;1.00
38860;DHT22;24609;48.316;16.174;2024-01-06T11:27:18;4.70;1.00
38860;DHT22;24609;48.316;16.174;2024-01-06T11:29:44;4.70;1.00
38860;DHT22;24609;48.316;16.174;2024-01-06T11:34:54;4.90;1.00
38860;DHT22;24609;48.316;16.174;2024-01-06T11:37:34;4.80;1.00
38860;DHT22;24609;48.316;16.174;2024-01-06T11:40:02;4.80;1.00
38860;DHT22;24609;48.316;16.174;2024-01-06T11:42:33;4.80;1.00
38860;DHT22;24609;48.316;16.174;2024-01-06T11:45:04;4.90;1.00
38860;DHT22;24609;48.316;16.174;2024-01-06T11:47:36;4.90;1.00
38860;DHT22;24609;48.316;16.174;2024-01-06T11:50:03;5.00;1.00
38860;DHT22;24609;48.316;16.174;2024-01-06T11:52:32;5.00;1.00
38860;DHT22;24609;48.316;16.174;2024-01-06T11:54:59;5.00;1.00
38860;DHT22;24609;48.316;16.174;2024-01-06T11:57:26;5.00;1.00
38860;DHT22;24609;48.316;16.174;2024-01-06T11:59:52;5.10;1.00
38860;DHT22;24609;48.316;16.174;2024-01-06T12:02:18;5.10;1.00
38860;DHT22;24609;48.316;16.174;2024-01-06T12:04:52;5.10;1.00
38860;DHT22;24609;48.316;16.174;2024-01-06T12:07:18;5.10;1.00
38860;DHT22;24609;48.316;16.174;2024-01-06T12:09:46;5.10;99.90
38860;DHT22;24609;48.316;16.174;2024-01-06T12:12:15;5.10;99.90
38860;DHT22;24609;48.316;16.174;2024-01-06T12:14:41;5.10;99.90
38860;DHT22;24609;48.316;16.174;2024-01-06T12:17:11;5.10;99.90
38860;DHT22;24609;48.316;16.174;2024-01-06T12:19:39;5.00;99.90
38860;DHT22;24609;48.316;16.174;2024-01-06T12:22:09;4.90;99.90
38860;DHT22;24609;48.316;16.174;2024-01-06T12:24:35;4.90;99.90
38860;DHT22;24609;48.316;16.174;2024-01-06T12:27:01;4.90;99.90
38860;DHT22;24609;48.316;16.174;2024-01-06T12:29:28;4.90;99.90
38860;DHT22;24609;48.316;16.174;2024-01-06T12:31:59;4.90;99.90
38860;DHT22;24609;48.316;16.174;2024-01-06T12:34:25;4.70;99.90
38860;DHT22;24609;48.316;16.174;2024-01-06T12:36:55;4.60;99.90
38860;DHT22;24609;48.316;16.174;2024-01-06T12:39:21;4.60;1.00
38860;DHT22;24609;48.316;16.174;2024-01-06T12:41:46;4.60;1.00
38860;DHT22;24609;48.316;16.174;2024-01-06T12:44:12;4.60;1.00
38860;DHT22;24609;48.316;16.174;2024-01-06T12:46:38;4.70;1.00
38860;DHT22;24609;48.316;16.174;2024-01-06T12:49:04;4.80;1.00
38860;DHT22;24609;48.316;16.174;2024-01-06T12:51:30;4.90;1.00
38860;DHT22;24609;48.316;16.174;2024-01-06T12:53:55;4.90;1.00
38860;DHT22;24609;48.316;16.174;2024-01-06T12:56:21;4.90;99.90
38860;DHT22;24609;48.316;16.174;2024-01-06T12:58:47;4.70;99.90
38860;DHT22;24609;48.316;16.174;2024-01-06T13:01:12;4.70;99.90
38860;DHT22;24609;48.316;16.174;2024-01-06T13:03:38;4.80;1.00
38860;DHT22;24609;48.316;16.174;2024-01-06T13:06:04;4.90;1.00
38860;DHT22;24609;48.316;16.174;2024-01-06T13:08:30;4.90;1.00
38860;DHT22;24609;48.316;16.174;2024-01-06T13:10:56;4.90;99.90
38860;DHT22;24609;48.316;16.174;2024-01-06T13:13:22;4.90;99.90
38860;DHT22;24609;48.316;16.174;2024-01-06T13:15:47;4.90;1.00
38860;DHT22;24609;48.316;16.174;2024-01-06T13:18:13;4.90;99.90
38860;DHT22;24609;48.316;16.174;2024-01-06T13:20:39;4.70;99.90
38860;DHT22;24609;48.316;16.174;2024-01-06T13:23:07;4.70;1.00
38860;DHT22;24609;48.316;16.174;2024-01-06T13:25:35;4.80;1.00
38860;DHT22;24609;48.316;16.174;2024-01-06T13:28:00;4.80;1.00
38860;DHT22;24609;48.316;16.174;2024-01-06T13:30:26;4.90;1.00
38860;DHT22;24609;48.316;16.174;2024-01-06T13:32:53;4.90;1.00
38860;DHT22;24609;48.316;16.174;2024-01-06T13:35:20;4.90;1.00
38860;DHT22;24609;48.316;16.174;2024-01-06T13:37:46;4.90;1.00
38860;DHT22;24609;48.316;16.174;2024-01-06T13:40:14;4.90;1.00
38860;DHT22;24609;48.316;16.174;2024-01-06T13:42:40;4.90;1.00
38860;DHT22;24609;48.316;16.174;2024-01-06T13:45:06;4.90;1.00
38860;DHT22;24609;48.316;16.174;2024-01-06T13:47:32;4.80;1.00
38860;DHT22;24609;48.316;16.174;2024-01-06T13:49:58;4.80;1.00
38860;DHT22;24609;48.316;16.174;2024-01-06T13:52:24;4.80;1.00
38860;DHT22;24609;48.316;16.174;2024-01-06T13:54:50;4.80;1.00
38860;DHT22;24609;48.316;16.174;2024-01-06T13:57:15;4.80;1.00
38860;DHT22;24609;48.316;16.174;2024-01-06T13:59:41;4.80;1.00
38860;DHT22;24609;48.316;16.174;2024-01-06T14:02:08;4.90;1.00
38860;DHT22;24609;48.316;16.174;2024-01-06T14:04:35;4.90;1.00
38860;DHT22;24609;48.316;16.174;2024-01-06T14:07:01;4.80;1.00
38860;DHT22;24609;48.316;16.174;2024-01-06T14:09:30;4.80;1.00
38860;DHT22;24609;48.316;16.174;2024-01-06T14:11:56;4.70;1.00
38860;DHT22;24609;48.316;16.174;2024-01-06T14:14:21;4.70;1.00
38860;DHT22;24609;48.316;16.174;2024-01-06T14:16:47;4.80;1.00
38860;DHT22;24609;48.316;16.174;2024-01-06T14:19:13;4.80;1.00
38860;DHT22;24609;48.316;16.174;2024-01-06T14:21:39;4.80;1.00
38860;DHT22;24609;48.316;16.174;2024-01-06T14:24:05;4.80;1.00
38860;DHT22;24609;48.316;16.174;2024-01-06T14:26:32;4.80;1.00
38860;DHT22;24609;48.316;16.174;2024-01-06T14:28:58;4.80;1.00
38860;DHT22;24609;48.316;16.174;2024-01-06T14:31:25;4.80;1.00
38860;DHT22;24609;48.316;16.174;2024-01-06T14:33:52;4.80;1.00
38860;DHT22;24609;48.316;16.174;2024-01-06T14:36:18;4.80;1.00
38860;DHT22;24609;48.316;16.174;2024-01-06T14:38:44;4.80;1.00
38860;DHT22;24609;48.316;16.174;2024-01-06T14:41:09;4.80;1.00
38860;DHT22;24609;48.316;16.174;2024-01-06T14:43:35;4.80;1.00
38860;DHT22;24609;48.316;16.174;2024-01-06T14:46:01;4.80;1.00
38860;DHT22;24609;48.316;16.174;2024-01-06T14:48:26;4.80;1.00
38860;DHT22;24609;48.316;16.174;2024-01-06T14:50:52;4.80;1.00
38860;DHT22;24609;48.316;16.174;2024-01-06T14:53:18;4.70;1.00
38860;DHT22;24609;48.316;16.174;2024-01-06T14:55:44;4.80;1.00
38860;DHT22;24609;48.316;16.174;2024-01-06T14:58:09;4.80;1.00
38860;DHT22;24609;48.316;16.174;2024-01-06T15:00:35;4.80;1.00
38860;DHT22;24609;48.316;16.174;2024-01-06T15:03:01;4.80;1.00
38860;DHT22;24609;48.316;16.174;2024-01-06T15:05:27;4.80;1.00
38860;DHT22;24609;48.316;16.174;2024-01-06T15:07:55;4.80;1.00
38860;DHT22;24609;48.316;16.174;2024-01-06T15:10:21;4.70;1.00
38860;DHT22;24609;48.316;16.174;2024-01-06T15:12:47;4.80;1.00
38860;DHT22;24609;48.316;16.174;2024-01-06T15:15:13;4.70;1.00
38860;DHT22;24609;48.316;16.174;2024-01-06T15:17:39;4.80;1.00
38860;DHT22;24609;48.316;16.174;2024-01-06T15:20:06;4.70;1.00
38860;DHT22;24609;48.316;16.174;2024-01-06T15:22:31;4.70;1.00
38860;DHT22;24609;48.316;16.174;2024-01-06T15:24:57;4.70;1.00
38860;DHT22;24609;48.316;16.174;2024-01-06T15:27:25;4.70;1.00
38860;DHT22;24609;48.316;16.174;2024-01-06T15:29:50;4.70;1.00
38860;DHT22;24609;48.316;16.174;2024-01-06T15:32:16;4.70;1.00
38860;DHT22;24609;48.316;16.174;2024-01-06T15:34:42;4.70;1.00
38860;DHT22;24609;48.316;16.174;2024-01-06T15:37:07;4.70;1.00
38860;DHT22;24609;48.316;16.174;2024-01-06T15:39:33;4.60;1.00